Terminal Aerodrome Forecast
Issued by NWS

Home | Current Version | Previous Version | Graphics & Text | Print | Product List | Glossary On
Versions: 1 2 3 4 5 6 7 8 9 10 11 12 13 14 15 16 17 18 19 20 21 22 23
000
FTUS45 KGGW 281100 RRA
TAFGDV
TAF
KGDV 281142Z 2812/2912 19010KT P6SM SCT150
     FM281800 23016KT P6SM VCTS SCT110CB
     FM282100 28025G38KT P6SM VCTS SCT060CB
     FM290000 29026G38KT P6SM VCSH SCT100
      AMD LTD TO VIS AND WIND=

USA.gov is the U.S. government's official web portal to all federal, state and local government web resources and services.